createdAt,value
2019-03-09T00:00:32.369Z,11.50
2019-03-09T00:03:01.034Z,11.25
2019-03-09T00:05:29.738Z,11.25
2019-03-09T00:07:58.402Z,11.97
2019-03-09T00:10:27.046Z,10.93
2019-03-09T00:12:55.734Z,10.98
2019-03-09T00:15:24.596Z,11.12
2019-03-09T00:17:53.282Z,11.38
2019-03-09T00:20:21.939Z,11.18
2019-03-09T00:22:52.163Z,10.88
2019-03-09T00:25:22.419Z,10.15
2019-03-09T00:28:02.202Z,9.13
2019-03-09T00:30:48.541Z,7.53
2019-03-09T00:33:17.192Z,7.47
2019-03-09T00:35:46.361Z,7.08
2019-03-09T00:38:15.014Z,6.40
2019-03-09T00:40:43.715Z,6.28
2019-03-09T00:43:12.354Z,6.15
2019-03-09T00:45:41.007Z,6.90
2019-03-09T00:48:09.703Z,6.25
2019-03-09T00:50:38.346Z,5.78
2019-03-09T00:53:07.034Z,5.58
2019-03-09T00:55:35.688Z,5.67
2019-03-09T00:58:04.339Z,5.47
2019-03-09T01:00:33.013Z,5.60
2019-03-09T01:03:01.667Z,5.20
2019-03-09T01:05:30.385Z,5.30
2019-03-09T01:07:59.022Z,5.47
2019-03-09T01:10:27.679Z,5.33
2019-03-09T01:12:56.377Z,5.33
2019-03-09T01:15:25.007Z,5.42
2019-03-09T01:17:53.708Z,5.97
2019-03-09T01:20:22.352Z,5.40
2019-03-09T01:22:51.001Z,5.90
2019-03-09T01:25:19.685Z,6.10
2019-03-09T01:27:48.333Z,5.62
2019-03-09T01:30:18.122Z,6.08
2019-03-09T01:32:46.772Z,6.47
2019-03-09T01:35:15.434Z,5.95
2019-03-09T01:37:44.128Z,7.00
2019-03-09T01:40:14.861Z,7.05
2019-03-09T01:42:43.546Z,6.20
2019-03-09T01:45:14.097Z,7.00
2019-03-09T01:47:42.788Z,6.15
2019-03-09T01:50:11.456Z,5.62
2019-03-09T01:52:40.089Z,6.00
2019-03-09T01:55:13.221Z,5.50
2019-03-09T01:57:41.880Z,5.40
2019-03-09T02:00:13.439Z,5.95
2019-03-09T02:02:42.073Z,6.85
2019-03-09T02:05:10.835Z,7.03
2019-03-09T02:07:39.513Z,6.65
2019-03-09T02:10:10.825Z,7.10
2019-03-09T02:12:39.535Z,7.70
2019-03-09T02:15:10.579Z,7.53
2019-03-09T02:17:39.227Z,6.65
2019-03-09T02:20:13.264Z,7.03
2019-03-09T02:22:41.929Z,7.78
2019-03-09T02:25:11.825Z,8.13
2019-03-09T02:27:40.461Z,8.30
2019-03-09T02:30:16.333Z,7.85
2019-03-09T02:32:44.997Z,8.38
2019-03-09T02:35:15.162Z,8.65
2019-03-09T02:37:43.852Z,8.48
2019-03-09T02:40:14.451Z,8.75
2019-03-09T02:42:43.126Z,9.10
2019-03-09T02:45:14.846Z,9.55
2019-03-09T02:47:43.558Z,9.43
2019-03-09T02:50:15.049Z,10.32
2019-03-09T02:52:43.694Z,9.38
2019-03-09T02:55:12.984Z,9.43
2019-03-09T02:57:41.611Z,8.88
2019-03-09T03:00:19.109Z,8.73
2019-03-09T03:03:05.473Z,9.48
2019-03-09T03:05:34.139Z,9.80
2019-03-09T03:08:02.806Z,10.25
2019-03-09T03:10:31.470Z,10.30
2019-03-09T03:13:00.174Z,9.85
2019-03-09T03:15:31.050Z,10.08
2019-03-09T03:17:59.679Z,10.30
2019-03-09T03:20:28.384Z,10.18
2019-03-09T03:22:57.040Z,9.60
2019-03-09T03:25:25.720Z,9.90
2019-03-09T03:27:54.389Z,9.98
2019-03-09T03:30:23.233Z,10.05
2019-03-09T03:32:53.733Z,9.25
2019-03-09T03:35:22.367Z,10.35
2019-03-09T03:37:51.056Z,10.45
2019-03-09T03:40:19.701Z,10.60
2019-03-09T03:42:48.416Z,10.55
2019-03-09T03:45:17.081Z,10.43
2019-03-09T03:47:45.716Z,10.60
2019-03-09T03:50:14.400Z,10.63
2019-03-09T03:52:43.073Z,11.05
2019-03-09T03:55:26.658Z,10.63
2019-03-09T03:57:55.348Z,11.48
2019-03-09T04:00:24.053Z,11.57
2019-03-09T04:02:52.687Z,10.78
2019-03-09T04:05:21.355Z,10.23
2019-03-09T04:07:50.031Z,11.28
2019-03-09T04:10:18.691Z,12.00
2019-03-09T04:12:47.375Z,11.57
2019-03-09T04:15:16.027Z,11.75
2019-03-09T04:17:44.677Z,10.85
2019-03-09T04:20:13.484Z,11.20
2019-03-09T04:22:42.112Z,11.08
2019-03-09T04:25:11.405Z,11.78
2019-03-09T04:27:40.089Z,12.43
2019-03-09T04:30:11.250Z,10.68
2019-03-09T04:32:39.941Z,11.83
2019-03-09T04:35:10.152Z,11.57
2019-03-09T04:37:38.855Z,11.60
2019-03-09T04:40:09.365Z,11.63
2019-03-09T04:42:37.996Z,11.08
2019-03-09T04:45:13.522Z,10.48
2019-03-09T04:47:42.161Z,11.10
2019-03-09T04:50:13.324Z,10.88
2019-03-09T04:52:41.967Z,10.68
2019-03-09T04:55:10.654Z,11.80
2019-03-09T04:57:39.302Z,10.63
2019-03-09T05:00:12.953Z,10.70
2019-03-09T05:02:41.669Z,11.12
2019-03-09T05:05:11.523Z,11.83
2019-03-09T05:07:49.196Z,11.68
2019-03-09T05:10:20.954Z,12.03
2019-03-09T05:12:58.622Z,12.28
2019-03-09T05:15:27.290Z,12.43
2019-03-09T05:17:55.939Z,11.73
2019-03-09T05:20:24.626Z,12.30
2019-03-09T05:22:53.282Z,12.20
2019-03-09T05:25:21.981Z,11.90
2019-03-09T05:27:50.621Z,12.05
2019-03-09T05:30:39.002Z,12.15
2019-03-09T05:33:07.657Z,12.13
2019-03-09T05:35:36.306Z,12.60
2019-03-09T05:38:05.090Z,11.90
2019-03-09T05:40:33.739Z,12.37
2019-03-09T05:43:02.465Z,12.47
2019-03-09T05:45:31.107Z,12.33
2019-03-09T05:47:59.773Z,12.37
2019-03-09T05:50:28.459Z,12.85
2019-03-09T05:53:14.877Z,12.65
2019-03-09T05:55:43.579Z,12.68
2019-03-09T05:58:12.210Z,13.15
2019-03-09T06:00:41.689Z,12.93
2019-03-09T06:03:10.330Z,13.18
2019-03-09T06:05:41.137Z,12.53
2019-03-09T06:08:09.782Z,12.30
2019-03-09T06:10:39.550Z,13.03
2019-03-09T06:13:08.172Z,13.50
2019-03-09T06:15:36.827Z,12.63
2019-03-09T06:18:06.428Z,12.37
2019-03-09T06:20:35.360Z,12.35
2019-03-09T06:23:04.050Z,12.33
2019-03-09T06:25:32.697Z,12.10
2019-03-09T06:28:01.367Z,12.30
2019-03-09T06:30:30.066Z,13.05
2019-03-09T06:33:27.702Z,12.33
2019-03-09T06:36:17.509Z,12.73
2019-03-09T06:38:54.231Z,12.70
2019-03-09T06:41:26.036Z,12.60
2019-03-09T06:43:54.687Z,12.43
2019-03-09T06:46:23.409Z,12.25
2019-03-09T06:48:52.032Z,12.68
2019-03-09T06:51:20.723Z,13.03
2019-03-09T06:53:49.380Z,13.20
2019-03-09T06:56:18.495Z,13.00
2019-03-09T06:58:47.261Z,12.75
2019-03-09T07:01:24.806Z,12.63
2019-03-09T07:03:53.522Z,13.35
2019-03-09T07:06:22.176Z,14.43
2019-03-09T07:08:50.827Z,13.03
2019-03-09T07:11:19.512Z,13.90
2019-03-09T07:13:52.970Z,14.30
2019-03-09T07:16:18.546Z,14.20
2019-03-09T07:18:47.199Z,14.15
2019-03-09T07:21:15.838Z,13.93
2019-03-09T07:23:44.514Z,15.38
2019-03-09T07:26:13.178Z,13.32
2019-03-09T07:28:41.881Z,12.40
2019-03-09T07:31:10.524Z,14.58
2019-03-09T07:33:39.179Z,13.98
2019-03-09T07:36:07.912Z,12.98
2019-03-09T07:38:36.574Z,12.90
2019-03-09T07:41:09.963Z,14.53
2019-03-09T07:43:44.659Z,14.10
2019-03-09T07:46:13.355Z,14.35
2019-03-09T07:48:42.500Z,14.13
2019-03-09T07:51:11.153Z,13.68
2019-03-09T07:53:39.812Z,14.05
2019-03-09T07:56:08.469Z,14.45
2019-03-09T07:58:37.168Z,14.75
2019-03-09T08:01:08.834Z,14.65
2019-03-09T08:03:40.571Z,14.00
2019-03-09T08:06:09.199Z,14.13
2019-03-09T08:08:37.850Z,14.28
2019-03-09T08:11:06.535Z,13.62
2019-03-09T08:13:35.198Z,13.43
2019-03-09T08:16:03.886Z,14.15
2019-03-09T08:18:32.552Z,14.30
2019-03-09T08:21:01.242Z,13.55
2019-03-09T08:23:29.902Z,14.60
2019-03-09T08:25:58.535Z,14.68
2019-03-09T08:28:27.244Z,14.60
2019-03-09T08:30:55.902Z,14.98
2019-03-09T08:33:24.592Z,16.42
2019-03-09T08:35:53.257Z,16.12
2019-03-09T08:38:21.927Z,15.95
2019-03-09T08:40:50.578Z,17.20
2019-03-09T08:43:19.235Z,16.32
2019-03-09T08:45:47.927Z,16.17
2019-03-09T08:48:16.595Z,15.50
2019-03-09T08:50:45.258Z,16.23
2019-03-09T08:53:13.915Z,16.65
2019-03-09T08:55:42.626Z,16.12
2019-03-09T08:58:11.289Z,15.95
2019-03-09T09:00:40.096Z,16.42
2019-03-09T09:03:08.754Z,16.37
2019-03-09T09:05:39.513Z,16.30
2019-03-09T09:08:07.756Z,16.87
2019-03-09T09:10:36.429Z,16.52
2019-03-09T09:13:05.101Z,16.52
2019-03-09T09:15:33.801Z,16.10
2019-03-09T09:18:02.440Z,15.93
2019-03-09T09:20:31.143Z,16.20
2019-03-09T09:22:59.804Z,15.63
2019-03-09T09:25:28.492Z,13.38
2019-03-09T09:27:57.148Z,13.53
2019-03-09T09:30:28.699Z,13.60
2019-03-09T09:32:57.399Z,13.50
2019-03-09T09:35:26.051Z,13.15
2019-03-09T09:37:54.758Z,12.40
2019-03-09T09:40:24.821Z,12.20
2019-03-09T09:42:53.533Z,11.48
2019-03-09T09:45:22.238Z,10.88
2019-03-09T09:47:50.870Z,9.58
2019-03-09T09:50:19.556Z,9.55
2019-03-09T09:52:48.205Z,9.70
2019-03-09T09:55:18.512Z,10.43
2019-03-09T09:57:47.191Z,9.75
2019-03-09T10:00:21.722Z,10.50
2019-03-09T10:02:50.406Z,10.55
2019-03-09T10:05:19.056Z,9.85
2019-03-09T10:07:47.740Z,10.20
2019-03-09T10:10:18.308Z,9.90
2019-03-09T10:12:47.004Z,7.45
2019-03-09T10:15:18.066Z,6.62
2019-03-09T10:17:46.840Z,7.22
2019-03-09T10:20:15.522Z,7.10
2019-03-09T10:22:44.190Z,6.03
2019-03-09T10:25:12.875Z,5.15
2019-03-09T10:27:41.528Z,5.17
2019-03-09T10:30:16.245Z,4.80
2019-03-09T10:32:44.927Z,5.20
2019-03-09T10:35:13.559Z,4.22
2019-03-09T10:37:42.276Z,4.50
2019-03-09T10:40:13.582Z,4.08
2019-03-09T10:42:42.302Z,4.30
2019-03-09T10:45:13.334Z,4.47
2019-03-09T10:47:42.007Z,4.95
2019-03-09T10:50:13.192Z,3.77
2019-03-09T10:52:41.842Z,4.13
2019-03-09T10:55:13.399Z,3.72
2019-03-09T10:57:42.052Z,3.55
2019-03-09T11:00:25.738Z,3.05
2019-03-09T11:02:54.383Z,3.17
2019-03-09T11:05:23.034Z,3.60
2019-03-09T11:07:51.727Z,3.15
2019-03-09T11:10:20.377Z,3.35
2019-03-09T11:12:49.075Z,2.50
2019-03-09T11:15:17.729Z,2.70
2019-03-09T11:17:46.388Z,2.37
2019-03-09T11:20:17.434Z,2.98
2019-03-09T11:22:46.084Z,2.58
2019-03-09T11:25:14.771Z,2.55
2019-03-09T11:27:43.410Z,2.62
2019-03-09T11:30:21.083Z,2.60
2019-03-09T11:32:49.747Z,2.45
2019-03-09T11:35:18.391Z,2.08
2019-03-09T11:37:47.080Z,2.95
2019-03-09T11:40:15.719Z,2.92
2019-03-09T11:42:44.398Z,2.25
2019-03-09T11:45:15.266Z,2.65
2019-03-09T11:47:43.916Z,2.72
2019-03-09T11:50:14.207Z,3.00
2019-03-09T11:52:42.878Z,2.95
2019-03-09T11:55:13.192Z,3.25
2019-03-09T11:57:41.829Z,3.15
2019-03-09T12:00:14.515Z,2.90
2019-03-09T12:02:43.199Z,2.92
2019-03-09T12:05:11.862Z,3.05
2019-03-09T12:07:40.568Z,2.90
2019-03-09T12:10:11.023Z,3.37
2019-03-09T12:12:39.695Z,3.50
2019-03-09T12:15:14.002Z,3.33
2019-03-09T12:17:42.672Z,2.92
2019-03-09T12:20:12.975Z,3.52
2019-03-09T12:22:41.628Z,4.20
2019-03-09T12:25:15.155Z,3.75
2019-03-09T12:27:43.846Z,3.70
2019-03-09T12:30:20.212Z,3.65
2019-03-09T12:32:48.949Z,2.77
2019-03-09T12:35:17.593Z,3.12
2019-03-09T12:37:46.243Z,2.87
2019-03-09T12:40:18.956Z,3.35
2019-03-09T12:42:47.608Z,4.15
2019-03-09T12:45:16.698Z,3.75
2019-03-09T12:47:45.363Z,4.20
2019-03-09T12:50:21.725Z,3.52
2019-03-09T12:52:50.372Z,3.47
2019-03-09T12:55:19.024Z,3.58
2019-03-09T12:57:47.707Z,3.12
2019-03-09T13:00:40.255Z,3.52
2019-03-09T13:05:36.856Z,3.95
2019-03-09T13:08:05.511Z,3.75
2019-03-09T13:10:34.203Z,4.20
2019-03-09T13:13:02.854Z,4.00
2019-03-09T13:15:31.559Z,3.50
2019-03-09T13:18:00.200Z,3.17
2019-03-09T13:20:28.853Z,3.12
2019-03-09T13:22:57.539Z,3.37
2019-03-09T13:25:26.174Z,3.83
2019-03-09T13:27:54.875Z,3.75
2019-03-09T13:30:24.326Z,3.70
2019-03-09T13:32:52.965Z,3.55
2019-03-09T13:35:21.665Z,3.30
2019-03-09T13:37:50.325Z,3.33
2019-03-09T13:40:19.014Z,3.83
2019-03-09T13:42:47.677Z,3.40
2019-03-09T13:45:17.323Z,3.72
2019-03-09T13:47:46.037Z,3.20
2019-03-09T13:50:15.382Z,3.50
2019-03-09T13:52:44.164Z,3.77
2019-03-09T13:55:13.591Z,3.80
2019-03-09T13:57:42.250Z,4.20
2019-03-09T14:00:14.062Z,4.40
2019-03-09T14:02:42.718Z,4.30
2019-03-09T14:05:11.417Z,4.12
2019-03-09T14:07:40.060Z,4.58
2019-03-09T14:10:11.213Z,4.65
2019-03-09T14:12:39.914Z,4.33
2019-03-09T14:15:11.323Z,4.10
2019-03-09T14:17:40.020Z,4.03
2019-03-09T14:20:10.866Z,4.62
2019-03-09T14:22:39.510Z,3.70
2019-03-09T14:25:10.383Z,4.25
2019-03-09T14:27:39.046Z,4.42
2019-03-09T14:30:16.677Z,4.28
2019-03-09T14:32:45.334Z,4.45
2019-03-09T14:35:13.984Z,4.10
2019-03-09T14:37:42.695Z,3.98
2019-03-09T14:40:13.546Z,4.35
2019-03-09T14:42:42.239Z,4.75
2019-03-09T14:45:21.699Z,4.17
2019-03-09T14:47:50.402Z,4.90
2019-03-09T14:50:19.062Z,5.28
2019-03-09T14:52:47.698Z,4.37
2019-03-09T14:55:16.389Z,4.58
2019-03-09T14:57:45.045Z,4.78
2019-03-09T15:00:22.135Z,4.53
2019-03-09T15:02:50.797Z,4.80
2019-03-09T15:05:19.446Z,4.35
2019-03-09T15:07:48.124Z,4.37
2019-03-09T15:10:16.774Z,4.22
2019-03-09T15:12:45.480Z,5.05
2019-03-09T15:15:16.390Z,4.62
2019-03-09T15:17:45.047Z,4.95
2019-03-09T15:20:15.332Z,4.22
2019-03-09T15:22:43.966Z,5.10
2019-03-09T15:25:15.515Z,5.08
2019-03-09T15:27:44.185Z,4.50
2019-03-09T15:30:17.756Z,4.40
2019-03-09T15:32:46.409Z,5.55
2019-03-09T15:35:16.917Z,5.08
2019-03-09T15:37:45.613Z,5.20
2019-03-09T15:40:17.956Z,5.75
2019-03-09T15:42:46.686Z,5.80
2019-03-09T15:45:19.280Z,5.97
2019-03-09T15:47:47.927Z,5.47
2019-03-09T15:50:19.714Z,5.45
2019-03-09T15:52:48.372Z,5.10
2019-03-09T15:55:17.108Z,5.15
2019-03-09T15:57:45.755Z,5.75
2019-03-09T16:00:22.884Z,5.45
2019-03-09T16:02:51.470Z,5.85
2019-03-09T16:05:20.140Z,5.80
2019-03-09T16:07:48.920Z,5.45
2019-03-09T16:10:21.885Z,5.47
2019-03-09T16:12:50.575Z,5.58
2019-03-09T16:15:19.247Z,6.67
2019-03-09T16:17:47.896Z,5.90
2019-03-09T16:20:22.189Z,5.55
2019-03-09T16:22:50.850Z,5.50
2019-03-09T16:25:21.223Z,6.50
2019-03-09T16:27:49.880Z,5.97
2019-03-09T16:30:19.984Z,6.28
2019-03-09T16:32:48.738Z,6.67
2019-03-09T16:35:22.193Z,6.15
2019-03-09T16:37:52.210Z,6.50
2019-03-09T16:40:26.122Z,5.90
2019-03-09T16:42:54.832Z,6.20
2019-03-09T16:45:23.486Z,6.30
2019-03-09T16:47:52.127Z,6.00
2019-03-09T16:50:20.832Z,6.30
2019-03-09T16:52:49.475Z,6.70
2019-03-09T16:55:18.184Z,6.33
2019-03-09T16:57:46.813Z,6.72
2019-03-09T17:00:20.477Z,7.10
2019-03-09T17:02:50.239Z,7.05
2019-03-09T17:05:18.945Z,6.47
2019-03-09T17:07:47.646Z,6.58
2019-03-09T17:10:19.167Z,6.80
2019-03-09T17:12:47.597Z,6.57
2019-03-09T17:15:18.739Z,7.12
2019-03-09T17:17:47.403Z,7.30
2019-03-09T17:20:17.306Z,6.75
2019-03-09T17:22:45.955Z,7.45
2019-03-09T17:25:14.721Z,7.03
2019-03-09T17:27:43.400Z,7.33
2019-03-09T17:30:20.289Z,6.85
2019-03-09T17:32:49.028Z,7.72
2019-03-09T17:35:17.681Z,7.55
2019-03-09T17:37:46.319Z,7.53
2019-03-09T17:40:17.019Z,7.97
2019-03-09T17:42:45.635Z,7.55
2019-03-09T17:45:19.876Z,8.25
2019-03-09T17:47:48.543Z,8.10
2019-03-09T17:50:17.189Z,8.80
2019-03-09T17:52:45.883Z,8.68
2019-03-09T17:55:14.556Z,9.10
2019-03-09T17:57:43.239Z,9.75
2019-03-09T18:00:20.905Z,9.18
2019-03-09T18:02:49.622Z,9.50
2019-03-09T18:05:19.744Z,9.25
2019-03-09T18:07:48.551Z,9.20
2019-03-09T18:10:26.395Z,9.80
2019-03-09T18:12:55.256Z,9.78
2019-03-09T18:15:23.952Z,9.73
2019-03-09T18:17:52.591Z,10.08
2019-03-09T18:20:21.288Z,10.13
2019-03-09T18:22:49.941Z,10.55
2019-03-09T18:25:18.636Z,9.50
2019-03-09T18:27:47.326Z,10.03
2019-03-09T18:30:15.990Z,10.32
2019-03-09T18:32:44.687Z,9.58
2019-03-09T18:35:13.338Z,9.53
2019-03-09T18:37:42.026Z,9.35
2019-03-09T18:40:13.631Z,10.55
2019-03-09T18:42:42.320Z,10.38
2019-03-09T18:45:19.244Z,11.05
2019-03-09T18:47:47.935Z,10.78
2019-03-09T18:50:16.593Z,10.68
2019-03-09T18:52:45.279Z,10.63
2019-03-09T18:55:13.955Z,11.28
2019-03-09T18:57:42.645Z,10.45
2019-03-09T19:00:18.807Z,10.93
2019-03-09T19:02:47.514Z,10.40
2019-03-09T19:05:16.182Z,10.68
2019-03-09T19:07:44.813Z,10.60
2019-03-09T19:10:22.505Z,10.85
2019-03-09T19:12:51.139Z,11.55
2019-03-09T19:15:19.825Z,11.63
2019-03-09T19:17:48.475Z,11.90
2019-03-09T19:20:18.769Z,13.10
2019-03-09T19:22:47.469Z,13.15
2019-03-09T19:25:16.303Z,13.35
2019-03-09T19:27:45.212Z,13.53
2019-03-09T19:30:19.176Z,14.33
2019-03-09T19:32:48.186Z,13.13
2019-03-09T19:35:17.106Z,12.80
2019-03-09T19:37:46.163Z,12.75
2019-03-09T19:40:17.408Z,12.05
2019-03-09T19:42:46.385Z,12.17
2019-03-09T19:45:16.781Z,11.25
2019-03-09T19:47:45.645Z,11.20
2019-03-09T19:50:17.439Z,10.40
2019-03-09T19:52:46.135Z,11.85
2019-03-09T19:55:14.870Z,10.48
2019-03-09T19:57:43.556Z,11.05
2019-03-09T20:00:17.060Z,11.05
2019-03-09T20:02:45.731Z,11.50
2019-03-09T20:05:14.383Z,11.30
2019-03-09T20:07:43.115Z,10.78
2019-03-09T20:10:22.213Z,11.00
2019-03-09T20:12:50.864Z,11.30
2019-03-09T20:15:20.510Z,10.20
2019-03-09T20:17:49.249Z,9.80
2019-03-09T20:20:21.075Z,9.65
2019-03-09T20:22:49.771Z,9.63
2019-03-09T20:25:18.406Z,8.55
2019-03-09T20:27:47.117Z,7.85
2019-03-09T20:30:21.662Z,7.80
2019-03-09T20:32:50.388Z,6.95
2019-03-09T20:35:19.010Z,6.97
2019-03-09T20:37:47.665Z,6.97
2019-03-09T20:40:17.853Z,6.75
2019-03-09T20:42:46.528Z,6.28
2019-03-09T20:45:24.387Z,5.80
2019-03-09T20:47:53.004Z,5.85
2019-03-09T20:50:23.335Z,5.08
2019-03-09T20:52:51.977Z,4.25
2019-03-09T20:55:20.624Z,4.12
2019-03-09T20:57:49.318Z,4.40
2019-03-09T21:00:19.954Z,4.30
2019-03-09T21:02:48.843Z,3.40
2019-03-09T21:05:17.491Z,3.27
2019-03-09T21:07:46.122Z,3.72
2019-03-09T21:10:18.903Z,3.65
2019-03-09T21:13:01.771Z,3.70
2019-03-09T21:15:30.493Z,3.77
2019-03-09T21:17:59.395Z,4.33
2019-03-09T21:20:28.037Z,4.55
2019-03-09T21:22:56.734Z,4.72
2019-03-09T21:25:25.388Z,4.75
2019-03-09T21:27:54.072Z,6.50
2019-03-09T21:30:22.805Z,5.72
2019-03-09T21:32:51.466Z,6.33
2019-03-09T21:35:20.126Z,6.85
2019-03-09T21:37:48.772Z,6.53
2019-03-09T21:40:17.451Z,6.33
2019-03-09T21:42:46.124Z,7.80
2019-03-09T21:45:15.346Z,5.55
2019-03-09T21:47:43.980Z,5.00
2019-03-09T21:50:15.091Z,5.12
2019-03-09T21:52:43.826Z,6.30
2019-03-09T21:55:13.659Z,5.95
2019-03-09T21:57:42.381Z,6.20
2019-03-09T22:00:18.409Z,5.92
2019-03-09T22:02:47.123Z,6.20
2019-03-09T22:05:15.787Z,8.25
2019-03-09T22:07:44.508Z,7.37
2019-03-09T22:10:13.791Z,7.37
2019-03-09T22:12:42.423Z,7.05
2019-03-09T22:15:17.033Z,7.22
2019-03-09T22:17:45.702Z,6.40
2019-03-09T22:20:14.963Z,7.10
2019-03-09T22:22:43.629Z,6.10
2019-03-09T22:25:13.607Z,6.45
2019-03-09T22:27:42.295Z,6.87
2019-03-09T22:30:14.111Z,6.25
2019-03-09T22:32:42.759Z,6.58
2019-03-09T22:35:13.251Z,6.80
2019-03-09T22:37:41.909Z,6.50
2019-03-09T22:40:12.510Z,6.45
2019-03-09T22:42:41.357Z,6.17
2019-03-09T22:45:13.740Z,6.70
2019-03-09T22:47:42.419Z,6.87
2019-03-09T22:50:16.808Z,6.28
2019-03-09T22:52:45.509Z,6.40
2019-03-09T22:55:14.147Z,6.12
2019-03-09T22:57:42.793Z,6.53
2019-03-09T23:00:14.354Z,6.50
2019-03-09T23:02:44.848Z,6.25
2019-03-09T23:05:13.357Z,6.53
2019-03-09T23:07:42.021Z,5.83
2019-03-09T23:10:13.284Z,6.47
2019-03-09T23:12:41.974Z,6.93
2019-03-09T23:15:13.807Z,7.33
2019-03-09T23:17:42.441Z,7.40
2019-03-09T23:20:13.452Z,7.67
2019-03-09T23:22:42.090Z,7.58
2019-03-09T23:25:11.495Z,8.08
2019-03-09T23:27:40.134Z,6.90
2019-03-09T23:30:19.676Z,12.78
2019-03-09T23:32:48.347Z,6.85
2019-03-09T23:35:17.002Z,7.37
2019-03-09T23:37:46.923Z,7.60
2019-03-09T23:40:20.187Z,6.58
2019-03-09T23:42:48.871Z,6.85
2019-03-09T23:45:19.133Z,6.55
2019-03-09T23:47:47.799Z,6.83
2019-03-09T23:50:17.705Z,6.35
2019-03-09T23:52:46.399Z,6.50
2019-03-09T23:55:21.817Z,9.68
2019-03-09T23:57:45.933Z,7.03
